Time;durP1;ratioP1;P1;durP2;ratioP2;P2;SDS_P1;SDS_P2;PMS_P1;PMS_P2;Temp;Humidity;BMP_temperature;BMP_pressure;BME280_temperature;BME280_humidity;BME280_pressure;Samples;Min_cycle;Max_cycle;Signal;HPM_P1;HPM_P2
2022/10/25 00:00:39;;;;;;;9.10;5.20;;;15.80;50.60;;;;;;5034274;28;20280;-42
2022/10/25 00:03:10;;;;;;;6.32;4.95;;;15.80;50.50;;;;;;5034492;28;20196;-41
2022/10/25 00:05:36;;;;;;;7.63;4.38;;;15.80;50.50;;;;;;5033716;28;20174;-41
2022/10/25 00:08:02;;;;;;;10.32;4.65;;;15.90;50.30;;;;;;5034246;28;20170;-42
2022/10/25 00:10:28;;;;;;;8.20;3.33;;;15.90;50.30;;;;;;5034036;28;20201;-41
2022/10/25 00:12:55;;;;;;;9.75;4.35;;;15.90;50.30;;;;;;5034371;28;20244;-41
2022/10/25 00:15:20;;;;;;;9.93;4.88;;;15.80;50.10;;;;;;5034099;28;20253;-42
2022/10/25 00:17:46;;;;;;;15.43;5.50;;;15.80;50.10;;;;;;5033600;28;20253;-42
2022/10/25 00:20:12;;;;;;;9.27;3.90;;;15.80;50.00;;;;;;5033939;28;20900;-42
2022/10/25 00:22:38;;;;;;;9.30;3.83;;;15.80;49.90;;;;;;5033943;28;20904;-42
2022/10/25 00:25:06;;;;;;;4.97;3.75;;;15.80;49.90;;;;;;5033944;28;20170;-42
2022/10/25 00:27:33;;;;;;;8.05;4.38;;;15.70;49.80;;;;;;5033357;28;20166;-42
2022/10/25 00:29:58;;;;;;;6.07;4.13;;;15.60;50.60;;;;;;5033829;28;20613;-42
2022/10/25 00:32:24;;;;;;;7.90;4.30;;;15.60;49.90;;;;;;5033835;28;20650;-42
2022/10/25 00:34:50;;;;;;;7.90;4.23;;;15.60;49.70;;;;;;5033746;28;20630;-42
2022/10/25 00:37:16;;;;;;;8.50;5.47;;;15.60;49.80;;;;;;5033174;28;20452;-42
2022/10/25 00:39:42;;;;;;;7.63;4.68;;;15.50;49.70;;;;;;5033436;28;20560;-42
2022/10/25 00:42:13;;;;;;;6.57;4.53;;;15.50;49.70;;;;;;5033641;28;20186;-42
2022/10/25 00:44:39;;;;;;;5.28;4.53;;;15.50;49.90;;;;;;5033495;28;20873;-42
2022/10/25 00:47:16;;;;;;;5.10;4.50;;;15.40;49.90;;;;;;5032113;28;20170;-42
2022/10/25 00:49:44;;;;;;;4.15;3.75;;;15.40;49.90;;;;;;5033384;28;20189;-42
2022/10/25 00:52:10;;;;;;;7.93;5.32;;;15.40;49.90;;;;;;5033442;28;20174;-42
2022/10/25 00:54:41;;;;;;;6.10;4.80;;;15.40;49.90;;;;;;5033359;28;20257;-42
2022/10/25 00:57:17;;;;;;;10.45;4.35;;;15.40;50.00;;;;;;5033069;28;20177;-42
2022/10/25 00:59:45;;;;;;;10.57;4.80;;;15.30;50.10;;;;;;5033431;28;20408;-42
2022/10/25 01:02:11;;;;;;;3.63;3.08;;;15.30;50.20;;;;;;5033223;28;20572;-42
2022/10/25 01:04:37;;;;;;;10.63;5.10;;;15.30;50.30;;;;;;5033470;28;20174;-42
2022/10/25 01:07:03;;;;;;;5.80;4.60;;;15.20;50.10;;;;;;5032533;28;20686;-42
2022/10/25 01:09:34;;;;;;;8.80;4.77;;;15.30;50.20;;;;;;5032933;28;20900;-42
2022/10/25 01:12:00;;;;;;;11.90;5.03;;;15.20;50.30;;;;;;5033008;28;20251;-42
2022/10/25 01:14:27;;;;;;;7.30;4.80;;;15.20;50.40;;;;;;5032990;28;20198;-42
2022/10/25 01:17:16;;;;;;;7.32;5.93;;;15.30;50.60;;;;;;5032405;28;20177;-42
2022/10/25 01:20:35;;;;;;;5.15;4.47;;;15.30;50.60;;;;;;5032788;28;20194;-42
2022/10/25 01:23:27;;;;;;;7.15;4.57;;;15.30;50.50;;;;;;5032820;28;20573;-42
2022/10/25 01:26:39;;;;;;;4.47;3.30;;;15.30;50.40;;;;;;5032579;28;20159;-42
2022/10/25 01:29:08;;;;;;;7.15;4.00;;;15.30;50.50;;;;;;4933098;29;20234;-42
2022/10/25 01:31:38;;;;;;;5.60;3.75;;;15.40;51.00;;;;;;5022456;28;20178;-42
2022/10/25 01:34:34;;;;;;;8.77;5.00;;;15.40;50.80;;;;;;5032639;28;20614;-42
2022/10/25 01:37:31;;;;;;;6.05;3.92;;;15.30;51.20;;;;;;5024013;28;20178;-42
2022/10/25 01:40:05;;;;;;;8.40;4.30;;;15.30;51.30;;;;;;4991796;28;20216;-42
2022/10/25 01:42:40;;;;;;;5.15;3.50;;;15.40;51.90;;;;;;5032449;28;20223;-42
2022/10/25 01:45:23;;;;;;;5.18;3.00;;;15.40;51.60;;;;;;5032550;28;20253;-42
2022/10/25 01:48:01;;;;;;;5.28;3.67;;;15.40;51.10;;;;;;5031832;28;20158;-42
2022/10/25 01:50:31;;;;;;;6.00;4.05;;;15.40;50.80;;;;;;5032338;28;20760;-42
2022/10/25 01:52:57;;;;;;;13.95;4.30;;;15.40;50.80;;;;;;5032538;28;20178;-42
2022/10/25 01:55:34;;;;;;;4.70;3.40;;;15.30;50.70;;;;;;5032279;28;20185;-42
2022/10/25 01:58:21;;;;;;;4.50;3.85;;;15.30;50.50;;;;;;5032145;28;20220;-42
2022/10/25 02:00:58;;;;;;;10.70;3.65;;;15.30;50.40;;;;;;5032431;28;20263;-42
2022/10/25 02:03:35;;;;;;;5.72;3.03;;;15.30;50.40;;;;;;5032475;28;20177;-42
2022/10/25 02:06:17;;;;;;;8.55;3.72;;;15.30;50.40;;;;;;5031645;28;20633;-42
2022/10/25 02:08:55;;;;;;;4.30;3.58;;;15.30;50.20;;;;;;5031755;28;20343;-42
2022/10/25 02:11:27;;;;;;;12.98;3.90;;;15.30;50.20;;;;;;5032154;28;20166;-42
2022/10/25 02:14:35;;;;;;;6.95;3.78;;;15.20;50.00;;;;;;5032096;28;20169;-42
2022/10/25 02:17:18;;;;;;;5.70;4.13;;;15.20;50.00;;;;;;5018286;28;20181;-42
2022/10/25 02:19:48;;;;;;;5.00;3.33;;;15.20;50.20;;;;;;5031871;28;20562;-42
2022/10/25 02:22:17;;;;;;;4.88;3.78;;;15.10;50.20;;;;;;5032293;28;20177;-42
2022/10/25 02:24:46;;;;;;;5.53;3.92;;;15.10;50.20;;;;;;5032000;28;20162;-42
2022/10/25 02:27:13;;;;;;;5.80;4.47;;;15.00;50.10;;;;;;5031391;28;20173;-42
2022/10/25 02:29:40;;;;;;;5.55;2.88;;;15.00;50.10;;;;;;5031861;28;20547;-42
2022/10/25 02:32:06;;;;;;;5.45;3.45;;;15.00;50.30;;;;;;5031882;28;20261;-42
2022/10/25 02:34:32;;;;;;;7.03;4.00;;;15.00;50.40;;;;;;5031847;28;20255;-42
2022/10/25 02:36:58;;;;;;;4.38;3.40;;;15.00;50.70;;;;;;5031318;28;20780;-42
2022/10/25 02:39:26;;;;;;;6.13;3.70;;;15.00;50.60;;;;;;5031703;28;20281;-42
2022/10/25 02:41:51;;;;;;;4.55;3.50;;;15.00;50.50;;;;;;5031976;28;20511;-42
2022/10/25 02:44:17;;;;;;;3.70;2.87;;;15.00;50.70;;;;;;5031837;28;20180;-42
2022/10/25 02:46:43;;;;;;;5.20;3.20;;;15.10;50.80;;;;;;5031253;28;20166;-42
2022/10/25 02:49:08;;;;;;;5.57;3.50;;;15.10;50.80;;;;;;5031619;28;20200;-42
2022/10/25 02:51:34;;;;;;;8.13;2.97;;;15.10;51.00;;;;;;5031741;28;20245;-42
2022/10/25 02:54:00;;;;;;;7.50;3.20;;;15.10;51.00;;;;;;5031821;28;20175;-41
2022/10/25 02:56:26;;;;;;;4.40;3.33;;;15.20;51.10;;;;;;5031183;28;20171;-42
2022/10/25 02:58:55;;;;;;;4.47;3.25;;;15.20;51.10;;;;;;5031621;28;20942;-42
2022/10/25 03:01:22;;;;;;;8.45;4.22;;;15.20;51.20;;;;;;5031551;28;20665;-42
2022/10/25 03:03:47;;;;;;;6.78;2.90;;;15.30;51.30;;;;;;5031695;28;20308;-42
2022/10/25 03:06:13;;;;;;;6.80;2.90;;;15.30;51.40;;;;;;5031122;28;20623;-42
2022/10/25 03:08:41;;;;;;;4.15;3.10;;;15.30;51.50;;;;;;5031424;28;20194;-42
2022/10/25 03:11:09;;;;;;;5.05;2.97;;;15.40;51.40;;;;;;5035237;28;20201;-42
2022/10/25 03:13:35;;;;;;;4.00;3.08;;;15.40;51.40;;;;;;5035261;28;20251;-42
2022/10/25 03:16:01;;;;;;;5.47;3.30;;;15.40;51.40;;;;;;5034631;28;20253;-41
2022/10/25 03:18:27;;;;;;;5.53;3.28;;;15.40;51.40;;;;;;5035082;28;20205;-41
2022/10/25 03:20:57;;;;;;;5.40;3.97;;;15.40;51.30;;;;;;5035073;28;20194;-41
2022/10/25 03:23:24;;;;;;;4.30;2.72;;;15.40;51.40;;;;;;5035427;28;20150;-42
2022/10/25 03:25:54;;;;;;;5.72;2.92;;;15.40;51.50;;;;;;5034436;28;20200;-41
2022/10/25 03:28:20;;;;;;;3.55;2.90;;;15.40;51.50;;;;;;5034996;28;20646;-40
2022/10/25 03:30:46;;;;;;;5.03;2.73;;;15.40;51.40;;;;;;5034972;28;20256;-41
2022/10/25 03:33:11;;;;;;;5.07;3.50;;;15.40;51.30;;;;;;5035079;28;20420;-39
2022/10/25 03:35:37;;;;;;;3.80;3.00;;;15.40;51.20;;;;;;5034432;28;20565;-41
2022/10/25 03:38:03;;;;;;;5.53;3.37;;;15.30;51.20;;;;;;5034724;28;20444;-41
2022/10/25 03:40:29;;;;;;;4.37;3.50;;;15.30;51.10;;;;;;5034645;28;20201;-41
2022/10/25 03:42:55;;;;;;;4.40;3.15;;;15.30;51.10;;;;;;5035147;28;20224;-41
2022/10/25 03:45:21;;;;;;;5.57;4.10;;;15.30;51.00;;;;;;5034621;28;20177;-41
2022/10/25 03:47:46;;;;;;;5.73;3.53;;;15.30;50.90;;;;;;5034137;28;20401;-42
2022/10/25 03:50:12;;;;;;;6.97;4.10;;;15.20;50.80;;;;;;5034595;28;20190;-41
2022/10/25 03:52:39;;;;;;;4.00;3.30;;;15.20;50.80;;;;;;5034549;28;20170;-41
2022/10/25 03:55:06;;;;;;;8.90;4.68;;;15.10;50.80;;;;;;5034495;28;20754;-42
2022/10/25 03:57:32;;;;;;;6.30;3.83;;;15.20;51.00;;;;;;5033841;28;20181;-41
2022/10/25 03:59:58;;;;;;;7.53;4.57;;;15.10;51.30;;;;;;5034165;28;20202;-42
2022/10/25 04:02:24;;;;;;;7.50;4.43;;;15.20;51.20;;;;;;5034287;28;20420;-41
2022/10/25 04:04:51;;;;;;;9.10;4.78;;;15.20;51.30;;;;;;5034450;28;20178;-41
2022/10/25 04:07:17;;;;;;;10.18;3.97;;;15.20;51.10;;;;;;5033707;28;20201;-41
2022/10/25 04:09:43;;;;;;;8.30;4.45;;;15.10;50.90;;;;;;5034029;28;20295;-41
2022/10/25 04:12:08;;;;;;;10.33;4.03;;;15.90;51.30;;;;;;5034395;28;20201;-41
2022/10/25 04:14:34;;;;;;;8.30;4.67;;;15.00;50.90;;;;;;5034128;28;20630;-41
2022/10/25 04:17:00;;;;;;;8.33;4.23;;;15.00;51.20;;;;;;5033505;28;20605;-41
2022/10/25 04:19:25;;;;;;;6.50;3.83;;;15.00;51.30;;;;;;5033831;28;20205;-41
2022/10/25 04:21:51;;;;;;;6.80;3.67;;;15.00;51.50;;;;;;5034016;28;20245;-42
2022/10/25 04:24:17;;;;;;;7.17;4.07;;;15.00;51.90;;;;;;5034007;28;20539;-41
2022/10/25 04:26:43;;;;;;;6.00;3.00;;;15.10;52.00;;;;;;5033347;28;20178;-41
2022/10/25 04:29:09;;;;;;;6.77;3.30;;;15.10;52.10;;;;;;5033706;28;20194;-41
2022/10/25 04:31:35;;;;;;;4.25;3.85;;;15.10;52.10;;;;;;5033863;28;20175;-41
2022/10/25 04:34:01;;;;;;;5.53;4.03;;;15.20;52.10;;;;;;5033815;28;20170;-41
2022/10/25 04:36:30;;;;;;;5.63;3.13;;;15.30;52.30;;;;;;5033204;28;20601;-41
2022/10/25 04:38:56;;;;;;;11.15;4.55;;;15.40;52.20;;;;;;5033520;28;20920;-41
2022/10/25 04:41:22;;;;;;;6.80;4.33;;;15.40;52.40;;;;;;5033453;28;20255;-42
2022/10/25 04:43:49;;;;;;;6.73;3.47;;;15.50;52.60;;;;;;5033783;28;20420;-41
2022/10/25 04:46:15;;;;;;;6.38;4.15;;;15.50;52.50;;;;;;5033040;28;20180;-41
2022/10/25 04:48:41;;;;;;;5.13;3.00;;;15.60;52.30;;;;;;5033426;28;20190;-41
2022/10/25 04:51:08;;;;;;;6.18;3.25;;;15.60;52.30;;;;;;5033408;28;20900;-41
2022/10/25 04:53:34;;;;;;;8.88;3.40;;;15.60;52.20;;;;;;5033331;28;20649;-41
2022/10/25 04:56:05;;;;;;;6.80;4.18;;;15.60;52.20;;;;;;5032810;28;20197;-42
2022/10/25 04:58:31;;;;;;;3.50;2.72;;;15.70;52.30;;;;;;5033205;28;20271;-41
2022/10/25 05:01:05;;;;;;;6.25;3.13;;;15.70;52.90;;;;;;5033466;28;20252;-41
2022/10/25 05:03:31;;;;;;;7.00;3.55;;;15.70;52.10;;;;;;5033233;28;20174;-41
2022/10/25 05:06:12;;;;;;;6.40;3.30;;;15.70;52.20;;;;;;5032579;28;20173;-40
2022/10/25 05:08:40;;;;;;;5.30;3.15;;;15.70;52.10;;;;;;5032771;28;20464;-41
2022/10/25 05:11:06;;;;;;;8.20;2.92;;;15.70;52.10;;;;;;5033110;28;20170;-41
2022/10/25 05:13:37;;;;;;;6.10;4.78;;;15.60;52.10;;;;;;5033127;28;20221;-42
2022/10/25 05:16:03;;;;;;;6.68;3.50;;;15.70;52.10;;;;;;5032656;28;20193;-42
2022/10/25 05:18:30;;;;;;;6.25;3.70;;;15.70;52.00;;;;;;5015252;28;20197;-42
2022/10/25 05:20:58;;;;;;;6.82;3.55;;;15.60;51.90;;;;;;5032790;28;20240;-42
2022/10/25 05:23:25;;;;;;;6.18;3.35;;;15.60;51.80;;;;;;5032976;28;20177;-42
2022/10/25 05:26:02;;;;;;;10.10;3.00;;;15.60;51.60;;;;;;5032204;28;20177;-42
2022/10/25 05:28:27;;;;;;;8.07;3.40;;;15.50;51.60;;;;;;5032554;28;20684;-42
2022/10/25 05:30:53;;;;;;;6.97;3.90;;;15.50;51.90;;;;;;5032702;28;20178;-42
2022/10/25 05:33:19;;;;;;;7.33;3.57;;;15.50;51.80;;;;;;5032275;28;20703;-42
2022/10/25 05:35:44;;;;;;;7.50;3.10;;;15.40;51.70;;;;;;5031964;28;20206;-42
2022/10/25 05:38:10;;;;;;;7.93;3.70;;;15.50;52.50;;;;;;5032402;28;20185;-42
2022/10/25 05:40:36;;;;;;;3.93;3.10;;;15.50;52.40;;;;;;5032424;28;20210;-42
2022/10/25 05:43:01;;;;;;;5.93;2.50;;;15.50;52.20;;;;;;5032525;28;20181;-42
2022/10/25 05:45:28;;;;;;;8.20;2.80;;;15.40;52.00;;;;;;5032624;28;20580;-42
2022/10/25 05:47:54;;;;;;;4.45;3.10;;;15.50;52.10;;;;;;5032173;28;20269;-42
2022/10/25 05:50:19;;;;;;;6.90;2.83;;;15.50;52.10;;;;;;5032225;28;20224;-42
2022/10/25 05:52:45;;;;;;;4.17;2.90;;;15.50;52.00;;;;;;5032288;28;20507;-42
2022/10/25 05:55:11;;;;;;;5.30;3.17;;;15.50;51.90;;;;;;5032847;28;20180;-42
2022/10/25 05:57:37;;;;;;;7.63;3.67;;;15.50;52.00;;;;;;5031786;28;20170;-42
2022/10/25 06:00:03;;;;;;;4.80;2.93;;;15.50;52.10;;;;;;5032167;28;20193;-42
2022/10/25 06:02:30;;;;;;;5.07;4.15;;;15.50;52.00;;;;;;5032150;28;20549;-42
2022/10/25 06:04:55;;;;;;;7.75;3.45;;;15.50;51.80;;;;;;5032124;28;20227;-42
2022/10/25 06:07:21;;;;;;;5.50;3.80;;;15.50;51.90;;;;;;5031607;28;20626;-42
2022/10/25 06:09:47;;;;;;;5.20;3.03;;;15.40;51.60;;;;;;5031992;28;21145;-41
2022/10/25 06:12:13;;;;;;;2.73;2.40;;;15.40;51.70;;;;;;5032325;28;20266;-42
2022/10/25 06:14:38;;;;;;;5.90;4.27;;;15.40;52.10;;;;;;5032085;28;20693;-42
2022/10/25 06:17:04;;;;;;;7.20;3.73;;;15.50;52.10;;;;;;5031715;28;20534;-42
2022/10/25 06:19:30;;;;;;;4.63;3.00;;;15.60;52.10;;;;;;5031801;28;20264;-42
2022/10/25 06:21:55;;;;;;;8.03;3.57;;;15.80;52.10;;;;;;5031944;28;20245;-42
2022/10/25 06:24:21;;;;;;;15.83;4.57;;;15.90;51.90;;;;;;5032310;28;20176;-42
2022/10/25 06:26:47;;;;;;;6.60;3.87;;;16.20;51.70;;;;;;5031344;28;20198;-42
2022/10/25 06:29:13;;;;;;;7.17;3.17;;;16.50;51.70;;;;;;5031868;28;20756;-42
2022/10/25 06:31:41;;;;;;;3.47;2.90;;;16.80;51.50;;;;;;5031869;28;20492;-42
2022/10/25 06:34:07;;;;;;;5.65;3.53;;;17.20;51.30;;;;;;5032029;28;20177;-42
2022/10/25 06:36:32;;;;;;;17.03;3.43;;;17.50;51.10;;;;;;5031600;28;20174;-42
2022/10/25 06:38:58;;;;;;;8.50;4.10;;;18.00;50.90;;;;;;5031767;28;20197;-42
2022/10/25 06:41:26;;;;;;;6.30;3.70;;;18.30;50.10;;;;;;5031999;28;20343;-42
2022/10/25 06:43:53;;;;;;;7.65;2.75;;;18.60;49.80;;;;;;5032126;28;20177;-41
2022/10/25 06:46:26;;;;;;;5.18;2.70;;;18.80;49.40;;;;;;5035204;28;20170;-42
2022/10/25 06:48:53;;;;;;;6.35;3.53;;;18.70;48.80;;;;;;5035726;28;20665;-42
2022/10/25 06:51:20;;;;;;;4.20;2.70;;;18.50;48.90;;;;;;5035670;28;20780;-42
2022/10/25 06:53:46;;;;;;;5.60;2.90;;;18.30;49.10;;;;;;5035898;28;20541;-42
2022/10/25 06:56:13;;;;;;;3.00;2.47;;;18.20;49.30;;;;;;5035142;28;20166;-42
2022/10/25 06:58:39;;;;;;;2.70;2.22;;;18.00;49.60;;;;;;5035457;28;20197;-42
2022/10/25 07:01:07;;;;;;;3.55;2.33;;;18.00;50.00;;;;;;5035332;28;20233;-42
2022/10/25 07:03:34;;;;;;;4.45;2.28;;;18.20;50.30;;;;;;5035199;28;20705;-42
2022/10/25 07:06:11;;;;;;;7.80;2.58;;;18.50;50.40;;;;;;5034860;28;20173;-42
2022/10/25 07:08:38;;;;;;;3.08;1.80;;;18.80;50.20;;;;;;5034963;28;20197;-42
2022/10/25 07:11:04;;;;;;;4.60;2.22;;;19.20;49.60;;;;;;5035342;28;20174;-42
2022/10/25 07:13:32;;;;;;;4.78;1.73;;;19.70;48.00;;;;;;5035228;28;20174;-42
2022/10/25 07:16:05;;;;;;;3.55;1.60;;;20.20;48.10;;;;;;5034767;28;20194;-43
2022/10/25 07:18:32;;;;;;;2.30;1.55;;;20.80;46.60;;;;;;5035076;28;20213;-42
2022/10/25 07:21:02;;;;;;;4.07;1.73;;;21.00;45.60;;;;;;5035102;28;20255;-42
2022/10/25 07:23:28;;;;;;;3.75;1.65;;;21.20;45.40;;;;;;5049407;22;20580;-45
2022/10/25 07:25:54;;;;;;;3.90;1.60;;;21.20;45.30;;;;;;5034418;28;20257;-45
2022/10/25 07:28:20;;;;;;;4.47;1.40;;;20.90;44.50;;;;;;5035047;28;20212;-44
2022/10/25 07:30:46;;;;;;;5.00;1.73;;;20.70;45.00;;;;;;5035119;28;20224;-45
2022/10/25 07:33:14;;;;;;;2.70;1.42;;;20.40;44.90;;;;;;5034858;28;20193;-44
2022/10/25 07:35:44;;;;;;;2.63;1.83;;;20.20;45.30;;;;;;5034264;28;20637;-44
2022/10/25 07:38:10;;;;;;;3.55;1.40;;;20.70;46.30;;;;;;5034911;28;20182;-45
2022/10/25 07:40:36;;;;;;;3.20;1.57;;;20.80;45.40;;;;;;5034915;28;20240;-45
2022/10/25 07:43:01;;;;;;;3.33;1.67;;;20.80;44.30;;;;;;5034840;28;20271;-45
2022/10/25 07:45:27;;;;;;;9.10;1.63;;;20.90;43.70;;;;;;5034909;28;20177;-44
2022/10/25 07:47:53;;;;;;;2.90;1.40;;;21.10;44.10;;;;;;5034345;28;20176;-42
2022/10/25 07:50:18;;;;;;;5.63;2.10;;;21.50;43.80;;;;;;5034584;28;20178;-42
2022/10/25 07:52:45;;;;;;;2.83;1.40;;;21.50;43.10;;;;;;5034450;28;20289;-42
2022/10/25 07:55:11;;;;;;;8.15;2.00;;;21.30;42.10;;;;;;5033925;28;20660;-42
2022/10/25 07:57:37;;;;;;;3.15;1.30;;;20.90;42.10;;;;;;5034016;28;20233;-43
2022/10/25 08:00:05;;;;;;;3.90;1.80;;;20.80;42.50;;;;;;5034500;28;20666;-43
2022/10/25 08:02:30;;;;;;;5.60;1.48;;;21.00;43.20;;;;;;5034453;28;20562;-44
2022/10/25 08:04:56;;;;;;;4.53;1.73;;;21.30;42.00;;;;;;5034126;28;20220;-43
2022/10/25 08:07:22;;;;;;;3.30;1.80;;;21.60;41.80;;;;;;5033699;28;20396;-43
2022/10/25 08:09:47;;;;;;;2.43;1.43;;;21.90;41.80;;;;;;5034174;28;20244;-42
2022/10/25 08:12:13;;;;;;;3.50;1.50;;;22.10;41.40;;;;;;5034035;28;20201;-42
2022/10/25 08:14:39;;;;;;;2.60;1.37;;;22.40;41.00;;;;;;5034171;28;20205;-43
2022/10/25 08:17:05;;;;;;;3.27;1.40;;;22.80;38.40;;;;;;5033531;28;20170;-44
2022/10/25 08:19:31;;;;;;;2.13;1.20;;;23.20;39.30;;;;;;5034076;28;20170;-43
2022/10/25 08:21:57;;;;;;;4.30;1.30;;;23.50;39.00;;;;;;5033820;28;20458;-44
2022/10/25 08:24:22;;;;;;;8.17;1.57;;;23.60;38.00;;;;;;5034162;28;20185;-44
2022/10/25 08:26:48;;;;;;;5.03;1.50;;;23.70;37.50;;;;;;5033590;28;20171;-45
2022/10/25 08:29:14;;;;;;;2.20;1.40;;;23.60;36.60;;;;;;5033926;28;20916;-45
2022/10/25 08:31:40;;;;;;;5.30;1.50;;;23.50;37.40;;;;;;5033874;28;20178;-44
2022/10/25 08:34:05;;;;;;;4.30;1.80;;;23.30;37.50;;;;;;5033762;28;20197;-44
2022/10/25 08:36:31;;;;;;;2.47;1.10;;;23.30;37.80;;;;;;5033113;28;20174;-43
2022/10/25 08:38:57;;;;;;;5.83;1.63;;;23.10;38.20;;;;;;5033574;28;20174;-43
2022/10/25 08:41:43;;;;;;;3.30;1.37;;;22.80;38.10;;;;;;5033702;28;20206;-44
2022/10/25 08:44:30;;;;;;;4.60;1.53;;;23.00;38.00;;;;;;5033538;28;20162;-45
2022/10/25 08:47:08;;;;;;;2.10;1.37;;;23.20;37.80;;;;;;5033042;28;20385;-43
2022/10/25 08:49:59;;;;;;;4.00;1.83;;;23.40;37.50;;;;;;5033478;28;20421;-44
2022/10/25 08:53:11;;;;;;;4.63;1.20;;;23.60;36.40;;;;;;5033624;28;20511;-45
2022/10/25 08:55:43;;;;;;;3.37;1.30;;;23.70;36.40;;;;;;5029528;28;20420;-44
2022/10/25 08:58:21;;;;;;;4.60;1.83;;;23.70;36.50;;;;;;5033391;28;20389;-45
2022/10/25 09:00:48;;;;;;;2.93;1.23;;;23.70;37.20;;;;;;5033414;28;20526;-44
2022/10/25 09:03:24;;;;;;;6.23;1.50;;;23.60;36.30;;;;;;5033280;28;20424;-45
2022/10/25 09:06:27;;;;;;;3.77;1.33;;;23.40;36.90;;;;;;5032562;28;20451;-45
2022/10/25 09:09:18;;;;;;;8.37;1.73;;;23.30;37.40;;;;;;5033152;28;20424;-44
2022/10/25 09:11:53;;;;;;;8.97;1.50;;;23.30;37.20;;;;;;5033097;28;20753;-46
2022/10/25 09:14:27;;;;;;;2.13;1.53;;;23.10;36.60;;;;;;5033068;28;20396;-46
2022/10/25 09:17:13;;;;;;;11.00;2.33;;;23.00;36.60;;;;;;5032572;28;20404;-45
2022/10/25 09:20:05;;;;;;;3.30;1.50;;;23.00;37.60;;;;;;5032971;28;20449;-45
2022/10/25 09:22:55;;;;;;;3.70;1.10;;;23.00;37.80;;;;;;5032666;28;20444;-44
2022/10/25 09:25:30;;;;;;;4.00;1.80;;;23.00;37.80;;;;;;5033021;28;20405;-43
2022/10/25 09:28:09;;;;;;;2.23;1.40;;;22.80;37.00;;;;;;5032592;28;20443;-43
2022/10/25 09:30:41;;;;;;;6.80;2.67;;;22.60;37.80;;;;;;5032654;28;20499;-43
2022/10/25 09:33:11;;;;;;;7.00;1.47;;;22.40;38.00;;;;;;5032787;28;20460;-44
2022/10/25 09:35:42;;;;;;;4.50;1.40;;;22.50;37.60;;;;;;5032065;28;20409;-44
2022/10/25 09:38:20;;;;;;;4.07;2.13;;;22.40;38.40;;;;;;5033323;28;20487;-44
2022/10/25 09:41:10;;;;;;;3.53;1.67;;;22.60;38.70;;;;;;5032472;28;20544;-43
2022/10/25 09:44:04;;;;;;;3.57;1.20;;;22.70;38.60;;;;;;5032387;28;20841;-44
2022/10/25 09:46:35;;;;;;;3.27;1.50;;;22.90;38.90;;;;;;5022122;28;20439;-44
2022/10/25 09:49:09;;;;;;;4.47;1.33;;;23.00;37.20;;;;;;5032509;28;20405;-43
2022/10/25 09:52:01;;;;;;;6.00;1.77;;;23.00;38.20;;;;;;5032715;28;20404;-44
2022/10/25 09:54:38;;;;;;;2.87;1.23;;;23.00;37.20;;;;;;5033168;28;20389;-44
2022/10/25 09:57:04;;;;;;;4.00;1.67;;;22.70;36.80;;;;;;5034848;28;20392;-45
2022/10/25 09:59:30;;;;;;;2.40;1.70;;;22.40;37.60;;;;;;5036405;28;20460;-45
2022/10/25 10:01:56;;;;;;;2.40;1.13;;;22.10;37.60;;;;;;5036405;28;20812;-43
2022/10/25 10:04:33;;;;;;;4.27;2.90;;;21.90;38.20;;;;;;5036236;28;20725;-43
2022/10/25 10:07:11;;;;;;;4.03;2.00;;;21.80;38.60;;;;;;5036489;28;20240;-43
2022/10/25 10:09:40;;;;;;;3.00;1.07;;;21.70;39.10;;;;;;5037106;28;20388;-44
2022/10/25 10:12:21;;;;;;;3.93;1.30;;;21.70;38.50;;;;;;5037502;28;20420;-43
2022/10/25 10:15:01;;;;;;;3.50;1.57;;;21.60;39.30;;;;;;5033849;28;20460;-45
2022/10/25 10:17:29;;;;;;;4.03;1.87;;;21.50;39.80;;;;;;5031778;28;20392;-44
2022/10/25 10:20:17;;;;;;;4.23;1.40;;;21.50;39.80;;;;;;5030840;28;20444;-44
2022/10/25 10:22:44;;;;;;;3.90;1.77;;;21.40;39.20;;;;;;5031821;28;20489;-44
2022/10/25 10:25:16;;;;;;;8.47;7.67;;;21.30;39.30;;;;;;5031957;28;20408;-43
2022/10/25 10:27:44;;;;;;;2.57;1.63;;;21.30;39.90;;;;;;5031658;28;20401;-43
2022/10/25 10:30:20;;;;;;;4.43;1.70;;;21.30;39.80;;;;;;5032026;28;20510;-43
2022/10/25 10:32:46;;;;;;;6.93;1.77;;;21.30;39.80;;;;;;5031836;28;20520;-43
2022/10/25 10:35:32;;;;;;;5.07;1.73;;;21.10;39.80;;;;;;5031783;28;20405;-43
2022/10/25 10:38:17;;;;;;;6.13;2.67;;;21.20;40.90;;;;;;5032003;28;20405;-43
2022/10/25 10:40:43;;;;;;;5.97;2.57;;;21.20;40.40;;;;;;5031682;28;20448;-44
2022/10/25 10:43:31;;;;;;;3.80;2.10;;;21.20;40.00;;;;;;5031835;28;20479;-43
2022/10/25 10:46:14;;;;;;;6.13;2.03;;;21.20;40.50;;;;;;5031089;28;20394;-43
2022/10/25 10:48:42;;;;;;;4.23;1.93;;;21.20;40.10;;;;;;5031953;28;20405;-45
2022/10/25 10:51:09;;;;;;;7.17;1.80;;;21.20;40.50;;;;;;5031806;28;20777;-44
2022/10/25 10:53:35;;;;;;;3.10;1.33;;;21.30;40.40;;;;;;5031627;28;20479;-43
2022/10/25 10:56:04;;;;;;;3.60;1.50;;;21.30;40.30;;;;;;5031434;28;20784;-44
2022/10/25 10:58:38;;;;;;;3.60;1.63;;;21.30;40.10;;;;;;5031583;28;20415;-42
2022/10/25 11:01:10;;;;;;;4.50;1.40;;;21.20;39.90;;;;;;5031685;28;20461;-44
2022/10/25 11:03:41;;;;;;;2.10;1.40;;;21.20;40.80;;;;;;5031850;28;20421;-44
2022/10/25 11:06:22;;;;;;;4.37;1.73;;;21.20;40.20;;;;;;5031033;28;20935;-45
2022/10/25 11:09:02;;;;;;;5.43;1.57;;;21.20;40.60;;;;;;5031523;28;20401;-44
2022/10/25 11:11:28;;;;;;;7.70;2.03;;;21.20;40.50;;;;;;5031837;28;20393;-44
2022/10/25 11:13:55;;;;;;;4.17;1.70;;;21.20;40.00;;;;;;5031551;28;20780;-45
2022/10/25 11:16:42;;;;;;;2.92;1.17;;;21.10;39.80;;;;;;5030867;28;20166;-43
2022/10/25 11:19:26;;;;;;;10.90;2.53;;;21.10;39.80;;;;;;5031395;28;20235;-46
2022/10/25 11:22:18;;;;;;;5.50;1.90;;;21.10;40.40;;;;;;5031267;28;20931;-43
2022/10/25 11:24:55;;;;;;;4.90;2.30;;;21.20;40.50;;;;;;5031425;28;20400;-44
2022/10/25 11:28:06;;;;;;;5.00;2.57;;;21.20;40.40;;;;;;5030836;28;20416;-43
2022/10/25 11:30:48;;;;;;;4.40;2.10;;;21.40;40.00;;;;;;5027453;28;20420;-44
2022/10/25 11:33:40;;;;;;;2.73;1.60;;;21.60;40.10;;;;;;5034903;28;20437;-42
2022/10/25 11:36:12;;;;;;;2.87;1.40;;;21.90;40.20;;;;;;5034247;28;21134;-43
2022/10/25 13:13:12;;;;;;;4.03;1.40;;;23.40;34.90;;;;;;5033022;28;20942;-42
2022/10/25 13:15:40;;;;;;;3.20;1.57;;;22.90;37.00;;;;;;5032582;28;20428;-43
2022/10/25 13:18:36;;;;;;;1.80;1.30;;;23.00;38.40;;;;;;5032958;28;20480;-42
2022/10/25 13:21:04;;;;;;;3.40;1.80;;;23.00;38.30;;;;;;5033203;28;20598;-45
2022/10/25 13:23:42;;;;;;;2.87;1.57;;;22.80;39.10;;;;;;5031533;28;20521;-43
2022/10/25 13:26:29;;;;;;;3.00;1.40;;;22.80;39.20;;;;;;5032268;28;20542;-44
2022/10/25 13:29:22;;;;;;;5.43;1.77;;;22.60;39.40;;;;;;5032963;28;20377;-43
2022/10/25 13:32:02;;;;;;;4.97;2.10;;;22.50;39.80;;;;;;5032486;28;20444;-43
2022/10/25 13:34:33;;;;;;;4.93;2.27;;;22.50;40.40;;;;;;5033000;28;20412;-44
2022/10/25 13:37:02;;;;;;;7.03;2.10;;;22.40;40.80;;;;;;5032128;28;20385;-43
2022/10/25 13:39:36;;;;;;;8.23;3.20;;;22.60;40.80;;;;;;5032614;28;20500;-43
2022/10/25 13:42:14;;;;;;;6.93;2.87;;;22.70;40.80;;;;;;5032819;28;20427;-43
2022/10/25 13:44:54;;;;;;;7.57;2.80;;;22.70;40.80;;;;;;5032480;28;20492;-43
2022/10/25 13:47:41;;;;;;;2.73;1.90;;;22.70;41.00;;;;;;5032109;28;20816;-42
2022/10/25 13:50:18;;;;;;;4.63;2.40;;;22.60;41.20;;;;;;5032203;28;20409;-42
2022/10/25 13:53:19;;;;;;;4.40;1.80;;;22.60;40.80;;;;;;5031937;28;20471;-42
2022/10/25 13:55:55;;;;;;;4.17;1.80;;;22.60;41.10;;;;;;5031663;28;21118;-42
2022/10/25 13:58:29;;;;;;;3.23;1.60;;;22.40;41.00;;;;;;5032251;28;20400;-43
2022/10/25 14:00:56;;;;;;;4.03;1.70;;;22.40;40.60;;;;;;5032271;28;20505;-43
2022/10/25 14:03:47;;;;;;;2.60;1.50;;;22.30;39.70;;;;;;5032204;28;20520;-43
2022/10/25 14:06:23;;;;;;;5.40;1.83;;;22.20;39.40;;;;;;5031871;28;20408;-43
2022/10/25 14:08:53;;;;;;;2.60;1.40;;;22.20;39.00;;;;;;5032828;28;20389;-43
2022/10/25 14:11:31;;;;;;;6.50;1.50;;;22.10;38.30;;;;;;5032372;28;20409;-43
2022/10/25 14:14:18;;;;;;;5.57;1.53;;;22.00;37.90;;;;;;5035499;28;20408;-43
2022/10/25 14:17:10;;;;;;;4.70;1.53;;;21.80;37.30;;;;;;5037018;28;20446;-42
2022/10/25 14:19:44;;;;;;;2.40;0.93;;;22.60;38.40;;;;;;5037588;28;20396;-44
2022/10/25 14:22:34;;;;;;;2.80;1.20;;;21.60;38.10;;;;;;5037654;28;20448;-43
2022/10/25 14:25:06;;;;;;;6.63;1.10;;;21.60;38.30;;;;;;5037449;28;20408;-44
2022/10/25 14:27:34;;;;;;;4.53;1.80;;;21.60;38.70;;;;;;5036588;28;20433;-44
2022/10/25 14:30:21;;;;;;;4.20;1.80;;;21.60;38.50;;;;;;5034480;28;20421;-42
2022/10/25 14:32:59;;;;;;;4.53;1.43;;;21.60;38.50;;;;;;5031901;28;20443;-42
2022/10/25 14:35:32;;;;;;;4.23;1.40;;;21.60;38.90;;;;;;5032142;28;20412;-43
2022/10/25 14:38:00;;;;;;;3.27;1.33;;;21.60;39.10;;;;;;5031937;28;20393;-44
2022/10/25 14:40:29;;;;;;;2.22;2.00;;;21.60;39.10;;;;;;5031680;28;20448;-45
2022/10/25 14:43:10;;;;;;;3.30;1.90;;;21.60;39.10;;;;;;5031743;28;20692;-45